sensor_id;sensor_type;location;lat;lon;timestamp;P1;durP1;ratioP1;P2;durP2;ratioP2
15086;SDS011;7642;48.478;8.952;2022-08-14T00:01:59;2.15;;;1.38;;
15086;SDS011;7642;48.478;8.952;2022-08-14T00:04:26;2.80;;;1.50;;
15086;SDS011;7642;48.478;8.952;2022-08-14T00:06:52;1.63;;;1.52;;
15086;SDS011;7642;48.478;8.952;2022-08-14T00:09:17;1.42;;;1.33;;
15086;SDS011;7642;48.478;8.952;2022-08-14T00:11:43;2.22;;;1.65;;
15086;SDS011;7642;48.478;8.952;2022-08-14T00:14:08;3.15;;;1.52;;
15086;SDS011;7642;48.478;8.952;2022-08-14T00:16:34;3.97;;;2.08;;
15086;SDS011;7642;48.478;8.952;2022-08-14T00:19:00;1.88;;;1.48;;
15086;SDS011;7642;48.478;8.952;2022-08-14T00:21:26;1.58;;;1.48;;
15086;SDS011;7642;48.478;8.952;2022-08-14T00:23:51;1.42;;;1.15;;
15086;SDS011;7642;48.478;8.952;2022-08-14T00:26:18;2.42;;;1.88;;
15086;SDS011;7642;48.478;8.952;2022-08-14T00:28:44;2.03;;;1.50;;
15086;SDS011;7642;48.478;8.952;2022-08-14T00:31:09;1.95;;;1.70;;
15086;SDS011;7642;48.478;8.952;2022-08-14T00:33:35;1.40;;;1.30;;
15086;SDS011;7642;48.478;8.952;2022-08-14T00:36:01;2.20;;;2.00;;
15086;SDS011;7642;48.478;8.952;2022-08-14T00:38:27;1.48;;;1.38;;
15086;SDS011;7642;48.478;8.952;2022-08-14T00:40:53;2.90;;;1.20;;
15086;SDS011;7642;48.478;8.952;2022-08-14T00:43:19;2.20;;;1.83;;
15086;SDS011;7642;48.478;8.952;2022-08-14T00:45:44;1.75;;;1.40;;
15086;SDS011;7642;48.478;8.952;2022-08-14T00:48:10;1.60;;;1.50;;
15086;SDS011;7642;48.478;8.952;2022-08-14T00:50:36;2.03;;;1.50;;
15086;SDS011;7642;48.478;8.952;2022-08-14T00:53:02;3.63;;;1.55;;
15086;SDS011;7642;48.478;8.952;2022-08-14T00:55:29;2.20;;;1.70;;
15086;SDS011;7642;48.478;8.952;2022-08-14T00:57:55;3.08;;;1.98;;
15086;SDS011;7642;48.478;8.952;2022-08-14T01:00:40;1.83;;;1.52;;
15086;SDS011;7642;48.478;8.952;2022-08-14T01:03:08;1.70;;;1.55;;
15086;SDS011;7642;48.478;8.952;2022-08-14T01:05:34;2.20;;;1.40;;
15086;SDS011;7642;48.478;8.952;2022-08-14T01:08:00;1.63;;;1.45;;
15086;SDS011;7642;48.478;8.952;2022-08-14T01:10:27;1.73;;;1.60;;
15086;SDS011;7642;48.478;8.952;2022-08-14T01:13:13;2.78;;;1.45;;
15086;SDS011;7642;48.478;8.952;2022-08-14T01:15:48;2.10;;;1.90;;
15086;SDS011;7642;48.478;8.952;2022-08-14T01:18:16;1.70;;;1.60;;
15086;SDS011;7642;48.478;8.952;2022-08-14T01:21:01;2.60;;;1.77;;
15086;SDS011;7642;48.478;8.952;2022-08-14T01:23:28;2.05;;;1.80;;
15086;SDS011;7642;48.478;8.952;2022-08-14T01:25:58;2.78;;;1.92;;
15086;SDS011;7642;48.478;8.952;2022-08-14T01:28:24;1.80;;;1.33;;
15086;SDS011;7642;48.478;8.952;2022-08-14T01:30:55;2.03;;;1.83;;
15086;SDS011;7642;48.478;8.952;2022-08-14T01:33:25;2.25;;;1.92;;
15086;SDS011;7642;48.478;8.952;2022-08-14T01:35:55;2.63;;;1.80;;
15086;SDS011;7642;48.478;8.952;2022-08-14T01:38:24;2.70;;;1.83;;
15086;SDS011;7642;48.478;8.952;2022-08-14T01:41:00;1.88;;;1.73;;
15086;SDS011;7642;48.478;8.952;2022-08-14T01:43:26;4.07;;;2.28;;
15086;SDS011;7642;48.478;8.952;2022-08-14T01:45:56;1.45;;;1.35;;
15086;SDS011;7642;48.478;8.952;2022-08-14T01:48:22;3.20;;;1.70;;
15086;SDS011;7642;48.478;8.952;2022-08-14T01:50:49;3.33;;;1.67;;
15086;SDS011;7642;48.478;8.952;2022-08-14T01:53:15;1.77;;;1.67;;
15086;SDS011;7642;48.478;8.952;2022-08-14T01:55:41;2.00;;;1.80;;
15086;SDS011;7642;48.478;8.952;2022-08-14T01:58:07;2.08;;;1.83;;
15086;SDS011;7642;48.478;8.952;2022-08-14T02:00:39;1.95;;;1.70;;
15086;SDS011;7642;48.478;8.952;2022-08-14T02:03:05;3.35;;;1.52;;
15086;SDS011;7642;48.478;8.952;2022-08-14T02:05:31;4.43;;;1.90;;
15086;SDS011;7642;48.478;8.952;2022-08-14T02:07:57;2.45;;;1.88;;
15086;SDS011;7642;48.478;8.952;2022-08-14T02:10:26;2.33;;;1.88;;
15086;SDS011;7642;48.478;8.952;2022-08-14T02:12:53;1.58;;;1.40;;
15086;SDS011;7642;48.478;8.952;2022-08-14T02:15:21;1.98;;;1.80;;
15086;SDS011;7642;48.478;8.952;2022-08-14T02:17:48;5.10;;;2.08;;
15086;SDS011;7642;48.478;8.952;2022-08-14T02:20:14;2.08;;;1.70;;
15086;SDS011;7642;48.478;8.952;2022-08-14T02:22:42;2.22;;;1.70;;
15086;SDS011;7642;48.478;8.952;2022-08-14T02:25:08;2.03;;;1.83;;
15086;SDS011;7642;48.478;8.952;2022-08-14T02:27:34;3.47;;;2.17;;
15086;SDS011;7642;48.478;8.952;2022-08-14T02:30:01;2.00;;;1.75;;
15086;SDS011;7642;48.478;8.952;2022-08-14T02:32:31;1.88;;;1.77;;
15086;SDS011;7642;48.478;8.952;2022-08-14T02:34:59;1.73;;;1.63;;
15086;SDS011;7642;48.478;8.952;2022-08-14T02:37:25;2.35;;;2.00;;
15086;SDS011;7642;48.478;8.952;2022-08-14T02:39:51;3.08;;;1.52;;
15086;SDS011;7642;48.478;8.952;2022-08-14T02:42:17;2.65;;;2.20;;
15086;SDS011;7642;48.478;8.952;2022-08-14T02:44:45;2.30;;;2.00;;
15086;SDS011;7642;48.478;8.952;2022-08-14T02:47:11;3.30;;;1.88;;
15086;SDS011;7642;48.478;8.952;2022-08-14T02:49:37;3.22;;;1.80;;
15086;SDS011;7642;48.478;8.952;2022-08-14T02:52:03;2.60;;;2.08;;
15086;SDS011;7642;48.478;8.952;2022-08-14T02:54:31;1.95;;;1.70;;
15086;SDS011;7642;48.478;8.952;2022-08-14T02:56:58;2.33;;;1.80;;
15086;SDS011;7642;48.478;8.952;2022-08-14T02:59:26;2.58;;;1.98;;
15086;SDS011;7642;48.478;8.952;2022-08-14T03:01:55;2.30;;;2.10;;
15086;SDS011;7642;48.478;8.952;2022-08-14T03:04:21;2.67;;;2.20;;
15086;SDS011;7642;48.478;8.952;2022-08-14T03:06:47;3.22;;;2.15;;
15086;SDS011;7642;48.478;8.952;2022-08-14T03:09:14;1.90;;;1.65;;
15086;SDS011;7642;48.478;8.952;2022-08-14T03:11:40;2.75;;;1.95;;
15086;SDS011;7642;48.478;8.952;2022-08-14T03:14:08;5.32;;;1.90;;
15086;SDS011;7642;48.478;8.952;2022-08-14T03:16:36;1.77;;;1.60;;
15086;SDS011;7642;48.478;8.952;2022-08-14T03:19:04;2.00;;;1.80;;
15086;SDS011;7642;48.478;8.952;2022-08-14T03:21:31;2.38;;;1.88;;
15086;SDS011;7642;48.478;8.952;2022-08-14T03:24:00;2.20;;;1.85;;
15086;SDS011;7642;48.478;8.952;2022-08-14T03:26:42;3.53;;;2.33;;
15086;SDS011;7642;48.478;8.952;2022-08-14T03:29:12;2.17;;;1.98;;
15086;SDS011;7642;48.478;8.952;2022-08-14T03:31:39;2.38;;;1.73;;
15086;SDS011;7642;48.478;8.952;2022-08-14T03:34:05;3.83;;;2.10;;
15086;SDS011;7642;48.478;8.952;2022-08-14T03:36:36;2.28;;;1.85;;
15086;SDS011;7642;48.478;8.952;2022-08-14T03:39:04;2.30;;;2.10;;
15086;SDS011;7642;48.478;8.952;2022-08-14T03:41:32;3.42;;;2.08;;
15086;SDS011;7642;48.478;8.952;2022-08-14T03:44:00;3.85;;;1.92;;
15086;SDS011;7642;48.478;8.952;2022-08-14T03:46:29;2.58;;;2.20;;
15086;SDS011;7642;48.478;8.952;2022-08-14T03:48:56;3.17;;;2.50;;
15086;SDS011;7642;48.478;8.952;2022-08-14T03:51:22;3.40;;;2.13;;
15086;SDS011;7642;48.478;8.952;2022-08-14T03:53:53;2.10;;;2.00;;
15086;SDS011;7642;48.478;8.952;2022-08-14T03:56:23;4.15;;;1.92;;
15086;SDS011;7642;48.478;8.952;2022-08-14T03:58:50;4.03;;;2.30;;
15086;SDS011;7642;48.478;8.952;2022-08-14T04:01:19;3.13;;;2.40;;
15086;SDS011;7642;48.478;8.952;2022-08-14T04:03:47;2.13;;;2.00;;
15086;SDS011;7642;48.478;8.952;2022-08-14T04:06:15;2.40;;;2.20;;
15086;SDS011;7642;48.478;8.952;2022-08-14T04:08:41;5.65;;;3.17;;
15086;SDS011;7642;48.478;8.952;2022-08-14T04:11:08;2.47;;;2.22;;
15086;SDS011;7642;48.478;8.952;2022-08-14T04:13:35;3.42;;;2.30;;
15086;SDS011;7642;48.478;8.952;2022-08-14T04:16:36;4.28;;;2.00;;
15086;SDS011;7642;48.478;8.952;2022-08-14T04:18:55;2.63;;;2.22;;
15086;SDS011;7642;48.478;8.952;2022-08-14T04:21:23;2.88;;;2.25;;
15086;SDS011;7642;48.478;8.952;2022-08-14T04:23:52;2.45;;;2.22;;
15086;SDS011;7642;48.478;8.952;2022-08-14T04:26:19;7.70;;;2.03;;
15086;SDS011;7642;48.478;8.952;2022-08-14T04:28:47;2.03;;;1.83;;
15086;SDS011;7642;48.478;8.952;2022-08-14T04:31:15;4.90;;;2.47;;
15086;SDS011;7642;48.478;8.952;2022-08-14T04:33:42;3.22;;;2.55;;
15086;SDS011;7642;48.478;8.952;2022-08-14T04:36:08;5.55;;;3.20;;
15086;SDS011;7642;48.478;8.952;2022-08-14T04:38:34;12.68;;;5.80;;
15086;SDS011;7642;48.478;8.952;2022-08-14T04:41:18;8.10;;;3.25;;
15086;SDS011;7642;48.478;8.952;2022-08-14T04:44:03;2.47;;;2.13;;
15086;SDS011;7642;48.478;8.952;2022-08-14T04:46:30;5.90;;;2.30;;
15086;SDS011;7642;48.478;8.952;2022-08-14T04:48:58;3.83;;;2.45;;
15086;SDS011;7642;48.478;8.952;2022-08-14T04:51:24;2.28;;;1.95;;
15086;SDS011;7642;48.478;8.952;2022-08-14T04:53:52;2.10;;;1.90;;
15086;SDS011;7642;48.478;8.952;2022-08-14T04:56:19;2.60;;;2.03;;
15086;SDS011;7642;48.478;8.952;2022-08-14T04:58:52;2.05;;;1.90;;
15086;SDS011;7642;48.478;8.952;2022-08-14T05:01:25;4.53;;;2.15;;
15086;SDS011;7642;48.478;8.952;2022-08-14T05:03:52;2.67;;;2.22;;
15086;SDS011;7642;48.478;8.952;2022-08-14T05:06:19;2.50;;;2.10;;
15086;SDS011;7642;48.478;8.952;2022-08-14T05:08:46;2.25;;;2.03;;
15086;SDS011;7642;48.478;8.952;2022-08-14T05:11:12;2.75;;;1.95;;
15086;SDS011;7642;48.478;8.952;2022-08-14T05:13:39;2.20;;;1.95;;
15086;SDS011;7642;48.478;8.952;2022-08-14T05:16:05;2.05;;;1.70;;
15086;SDS011;7642;48.478;8.952;2022-08-14T05:18:35;2.60;;;1.83;;
15086;SDS011;7642;48.478;8.952;2022-08-14T05:21:05;2.50;;;2.15;;
15086;SDS011;7642;48.478;8.952;2022-08-14T05:23:33;2.35;;;2.15;;
15086;SDS011;7642;48.478;8.952;2022-08-14T05:26:01;5.15;;;2.42;;
15086;SDS011;7642;48.478;8.952;2022-08-14T05:28:46;2.95;;;2.28;;
15086;SDS011;7642;48.478;8.952;2022-08-14T05:31:12;2.20;;;2.00;;
15086;SDS011;7642;48.478;8.952;2022-08-14T05:33:42;3.00;;;2.58;;
15086;SDS011;7642;48.478;8.952;2022-08-14T05:36:09;2.72;;;2.33;;
15086;SDS011;7642;48.478;8.952;2022-08-14T05:38:37;2.47;;;2.03;;
15086;SDS011;7642;48.478;8.952;2022-08-14T05:41:05;2.08;;;1.98;;
15086;SDS011;7642;48.478;8.952;2022-08-14T05:43:36;3.15;;;2.38;;
15086;SDS011;7642;48.478;8.952;2022-08-14T05:46:04;3.13;;;2.67;;
15086;SDS011;7642;48.478;8.952;2022-08-14T05:48:30;2.50;;;1.88;;
15086;SDS011;7642;48.478;8.952;2022-08-14T05:50:55;3.85;;;2.58;;
15086;SDS011;7642;48.478;8.952;2022-08-14T05:53:21;2.30;;;2.10;;
15086;SDS011;7642;48.478;8.952;2022-08-14T05:55:48;4.80;;;1.90;;
15086;SDS011;7642;48.478;8.952;2022-08-14T05:58:14;3.45;;;2.03;;
15086;SDS011;7642;48.478;8.952;2022-08-14T06:00:41;2.88;;;2.28;;
15086;SDS011;7642;48.478;8.952;2022-08-14T06:03:11;3.28;;;2.08;;
15086;SDS011;7642;48.478;8.952;2022-08-14T06:05:40;1.95;;;1.80;;
15086;SDS011;7642;48.478;8.952;2022-08-14T06:08:29;2.97;;;2.30;;
15086;SDS011;7642;48.478;8.952;2022-08-14T06:10:55;2.55;;;2.22;;
15086;SDS011;7642;48.478;8.952;2022-08-14T06:13:27;2.30;;;2.10;;
15086;SDS011;7642;48.478;8.952;2022-08-14T06:15:54;3.85;;;2.05;;
15086;SDS011;7642;48.478;8.952;2022-08-14T06:18:19;2.50;;;2.30;;
15086;SDS011;7642;48.478;8.952;2022-08-14T06:20:45;4.32;;;2.53;;
15086;SDS011;7642;48.478;8.952;2022-08-14T06:23:11;2.65;;;2.30;;
15086;SDS011;7642;48.478;8.952;2022-08-14T06:25:37;2.40;;;2.20;;
15086;SDS011;7642;48.478;8.952;2022-08-14T06:28:03;9.45;;;2.50;;
15086;SDS011;7642;48.478;8.952;2022-08-14T06:30:30;3.38;;;2.28;;
15086;SDS011;7642;48.478;8.952;2022-08-14T06:32:58;3.47;;;2.60;;
15086;SDS011;7642;48.478;8.952;2022-08-14T06:35:23;6.22;;;2.30;;
15086;SDS011;7642;48.478;8.952;2022-08-14T06:37:50;2.00;;;1.85;;
15086;SDS011;7642;48.478;8.952;2022-08-14T06:40:18;3.97;;;2.40;;
15086;SDS011;7642;48.478;8.952;2022-08-14T06:42:51;4.18;;;2.47;;
15086;SDS011;7642;48.478;8.952;2022-08-14T06:45:17;2.88;;;2.20;;
15086;SDS011;7642;48.478;8.952;2022-08-14T06:47:45;3.35;;;2.42;;
15086;SDS011;7642;48.478;8.952;2022-08-14T06:50:13;3.05;;;2.22;;
15086;SDS011;7642;48.478;8.952;2022-08-14T06:52:40;2.22;;;1.92;;
15086;SDS011;7642;48.478;8.952;2022-08-14T06:55:07;2.90;;;2.60;;
15086;SDS011;7642;48.478;8.952;2022-08-14T06:57:38;3.15;;;2.42;;
15086;SDS011;7642;48.478;8.952;2022-08-14T07:00:07;2.78;;;2.33;;
15086;SDS011;7642;48.478;8.952;2022-08-14T07:02:34;2.50;;;1.98;;
15086;SDS011;7642;48.478;8.952;2022-08-14T07:05:19;3.15;;;2.30;;
15086;SDS011;7642;48.478;8.952;2022-08-14T07:08:03;4.22;;;2.03;;
15086;SDS011;7642;48.478;8.952;2022-08-14T07:10:30;3.17;;;2.30;;
15086;SDS011;7642;48.478;8.952;2022-08-14T07:12:56;2.28;;;1.95;;
15086;SDS011;7642;48.478;8.952;2022-08-14T07:15:22;2.80;;;2.25;;
15086;SDS011;7642;48.478;8.952;2022-08-14T07:17:48;2.55;;;2.03;;
15086;SDS011;7642;48.478;8.952;2022-08-14T07:20:15;2.90;;;2.33;;
15086;SDS011;7642;48.478;8.952;2022-08-14T07:22:44;2.20;;;2.00;;
15086;SDS011;7642;48.478;8.952;2022-08-14T07:25:13;2.20;;;1.67;;
15086;SDS011;7642;48.478;8.952;2022-08-14T07:27:40;2.78;;;2.58;;
15086;SDS011;7642;48.478;8.952;2022-08-14T07:30:06;2.60;;;2.40;;
15086;SDS011;7642;48.478;8.952;2022-08-14T07:32:33;2.92;;;2.72;;
15086;SDS011;7642;48.478;8.952;2022-08-14T07:34:59;2.38;;;2.17;;
15086;SDS011;7642;48.478;8.952;2022-08-14T07:37:24;2.10;;;1.90;;
15086;SDS011;7642;48.478;8.952;2022-08-14T07:39:50;1.80;;;1.70;;
15086;SDS011;7642;48.478;8.952;2022-08-14T07:42:16;2.13;;;1.92;;
15086;SDS011;7642;48.478;8.952;2022-08-14T07:44:41;2.10;;;1.83;;
15086;SDS011;7642;48.478;8.952;2022-08-14T07:47:07;2.88;;;1.98;;
15086;SDS011;7642;48.478;8.952;2022-08-14T07:49:33;2.03;;;1.80;;
15086;SDS011;7642;48.478;8.952;2022-08-14T07:52:03;1.95;;;1.80;;
15086;SDS011;7642;48.478;8.952;2022-08-14T07:54:29;3.67;;;1.95;;
15086;SDS011;7642;48.478;8.952;2022-08-14T07:56:58;1.90;;;1.70;;
15086;SDS011;7642;48.478;8.952;2022-08-14T07:59:25;4.10;;;1.90;;
15086;SDS011;7642;48.478;8.952;2022-08-14T08:01:51;4.10;;;1.88;;
15086;SDS011;7642;48.478;8.952;2022-08-14T08:04:26;3.00;;;1.92;;
15086;SDS011;7642;48.478;8.952;2022-08-14T08:06:54;2.00;;;1.70;;
15086;SDS011;7642;48.478;8.952;2022-08-14T08:09:23;1.80;;;1.67;;
15086;SDS011;7642;48.478;8.952;2022-08-14T08:11:50;3.15;;;2.00;;
15086;SDS011;7642;48.478;8.952;2022-08-14T08:14:16;2.80;;;1.98;;
15086;SDS011;7642;48.478;8.952;2022-08-14T08:16:44;2.85;;;2.10;;
15086;SDS011;7642;48.478;8.952;2022-08-14T08:19:11;1.60;;;1.50;;
15086;SDS011;7642;48.478;8.952;2022-08-14T08:21:38;2.30;;;1.42;;
15086;SDS011;7642;48.478;8.952;2022-08-14T08:24:03;1.60;;;1.35;;
15086;SDS011;7642;48.478;8.952;2022-08-14T08:26:30;2.45;;;1.63;;
15086;SDS011;7642;48.478;8.952;2022-08-14T08:28:56;1.70;;;1.50;;
15086;SDS011;7642;48.478;8.952;2022-08-14T08:31:22;1.95;;;1.45;;
15086;SDS011;7642;48.478;8.952;2022-08-14T08:33:51;1.83;;;1.70;;
15086;SDS011;7642;48.478;8.952;2022-08-14T08:36:17;2.78;;;1.40;;
15086;SDS011;7642;48.478;8.952;2022-08-14T08:38:44;1.80;;;1.63;;
15086;SDS011;7642;48.478;8.952;2022-08-14T08:41:11;1.60;;;1.50;;
15086;SDS011;7642;48.478;8.952;2022-08-14T08:43:37;2.78;;;1.42;;
15086;SDS011;7642;48.478;8.952;2022-08-14T08:46:08;1.55;;;1.45;;
15086;SDS011;7642;48.478;8.952;2022-08-14T08:48:45;1.75;;;1.65;;
15086;SDS011;7642;48.478;8.952;2022-08-14T08:53:57;1.88;;;1.70;;
15086;SDS011;7642;48.478;8.952;2022-08-14T08:56:34;3.60;;;1.55;;
15086;SDS011;7642;48.478;8.952;2022-08-14T08:59:16;2.40;;;1.50;;
15086;SDS011;7642;48.478;8.952;2022-08-14T09:01:53;1.88;;;1.40;;
15086;SDS011;7642;48.478;8.952;2022-08-14T09:04:25;1.60;;;1.45;;
15086;SDS011;7642;48.478;8.952;2022-08-14T09:06:51;1.63;;;1.52;;
15086;SDS011;7642;48.478;8.952;2022-08-14T09:09:22;1.55;;;1.38;;
15086;SDS011;7642;48.478;8.952;2022-08-14T09:11:49;1.33;;;1.20;;
15086;SDS011;7642;48.478;8.952;2022-08-14T09:14:18;2.20;;;1.63;;
15086;SDS011;7642;48.478;8.952;2022-08-14T09:16:43;1.90;;;1.60;;
15086;SDS011;7642;48.478;8.952;2022-08-14T09:19:10;3.00;;;1.40;;
15086;SDS011;7642;48.478;8.952;2022-08-14T09:21:37;1.50;;;1.40;;
15086;SDS011;7642;48.478;8.952;2022-08-14T09:24:03;1.98;;;1.33;;
15086;SDS011;7642;48.478;8.952;2022-08-14T09:26:30;1.30;;;1.20;;
15086;SDS011;7642;48.478;8.952;2022-08-14T09:28:56;1.50;;;1.40;;
15086;SDS011;7642;48.478;8.952;2022-08-14T09:31:21;1.90;;;1.50;;
15086;SDS011;7642;48.478;8.952;2022-08-14T09:36:46;2.00;;;1.80;;
15086;SDS011;7642;48.478;8.952;2022-08-14T09:45:02;1.55;;;1.20;;
15086;SDS011;7642;48.478;8.952;2022-08-14T09:47:55;1.60;;;1.50;;
15086;SDS011;7642;48.478;8.952;2022-08-14T09:50:25;1.50;;;1.40;;
15086;SDS011;7642;48.478;8.952;2022-08-14T09:55:26;1.15;;;1.05;;
15086;SDS011;7642;48.478;8.952;2022-08-14T10:00:42;1.45;;;1.23;;
15086;SDS011;7642;48.478;8.952;2022-08-14T10:03:23;1.48;;;0.90;;
15086;SDS011;7642;48.478;8.952;2022-08-14T10:06:02;1.25;;;1.10;;
15086;SDS011;7642;48.478;8.952;2022-08-14T10:08:39;4.03;;;1.45;;
15086;SDS011;7642;48.478;8.952;2022-08-14T10:11:15;0.90;;;0.90;;
15086;SDS011;7642;48.478;8.952;2022-08-14T10:13:43;1.70;;;1.25;;
15086;SDS011;7642;48.478;8.952;2022-08-14T10:16:10;3.28;;;1.00;;
15086;SDS011;7642;48.478;8.952;2022-08-14T10:18:37;0.90;;;0.85;;
15086;SDS011;7642;48.478;8.952;2022-08-14T10:21:03;1.33;;;0.80;;
15086;SDS011;7642;48.478;8.952;2022-08-14T10:23:42;0.90;;;0.70;;
15086;SDS011;7642;48.478;8.952;2022-08-14T10:26:14;1.90;;;0.80;;
15086;SDS011;7642;48.478;8.952;2022-08-14T10:28:43;1.15;;;0.90;;
15086;SDS011;7642;48.478;8.952;2022-08-14T10:31:24;2.20;;;0.95;;
15086;SDS011;7642;48.478;8.952;2022-08-14T10:34:00;1.05;;;0.95;;
15086;SDS011;7642;48.478;8.952;2022-08-14T10:36:38;1.20;;;1.10;;
15086;SDS011;7642;48.478;8.952;2022-08-14T10:39:15;5.22;;;2.58;;
15086;SDS011;7642;48.478;8.952;2022-08-14T10:41:46;0.85;;;0.85;;
15086;SDS011;7642;48.478;8.952;2022-08-14T10:44:13;0.80;;;0.70;;
15086;SDS011;7642;48.478;8.952;2022-08-14T10:46:41;0.85;;;0.85;;
15086;SDS011;7642;48.478;8.952;2022-08-14T10:49:18;1.08;;;0.98;;
15086;SDS011;7642;48.478;8.952;2022-08-14T10:52:02;0.73;;;0.70;;
15086;SDS011;7642;48.478;8.952;2022-08-14T10:54:37;1.00;;;0.85;;
15086;SDS011;7642;48.478;8.952;2022-08-14T10:59:47;2.85;;;1.08;;
15086;SDS011;7642;48.478;8.952;2022-08-14T11:04:59;1.88;;;0.98;;
15086;SDS011;7642;48.478;8.952;2022-08-14T11:07:25;1.10;;;1.00;;
15086;SDS011;7642;48.478;8.952;2022-08-14T11:09:58;1.17;;;0.77;;
15086;SDS011;7642;48.478;8.952;2022-08-14T11:12:26;1.00;;;0.80;;
15086;SDS011;7642;48.478;8.952;2022-08-14T11:15:12;1.05;;;0.82;;
15086;SDS011;7642;48.478;8.952;2022-08-14T11:17:40;1.05;;;0.95;;
15086;SDS011;7642;48.478;8.952;2022-08-14T11:20:08;0.85;;;0.85;;
15086;SDS011;7642;48.478;8.952;2022-08-14T11:22:34;0.75;;;0.60;;
15086;SDS011;7642;48.478;8.952;2022-08-14T11:25:05;0.80;;;0.80;;
15086;SDS011;7642;48.478;8.952;2022-08-14T11:27:35;0.98;;;0.90;;
15086;SDS011;7642;48.478;8.952;2022-08-14T11:30:04;1.33;;;0.63;;
15086;SDS011;7642;48.478;8.952;2022-08-14T11:32:35;0.65;;;0.65;;
15086;SDS011;7642;48.478;8.952;2022-08-14T11:35:04;0.50;;;0.50;;
15086;SDS011;7642;48.478;8.952;2022-08-14T11:37:30;1.13;;;0.60;;
15086;SDS011;7642;48.478;8.952;2022-08-14T11:39:57;0.70;;;0.70;;
15086;SDS011;7642;48.478;8.952;2022-08-14T11:42:24;1.25;;;0.90;;
15086;SDS011;7642;48.478;8.952;2022-08-14T11:44:52;0.75;;;0.73;;
15086;SDS011;7642;48.478;8.952;2022-08-14T11:47:20;1.13;;;1.02;;
15086;SDS011;7642;48.478;8.952;2022-08-14T11:49:46;1.30;;;1.10;;
15086;SDS011;7642;48.478;8.952;2022-08-14T11:52:13;0.90;;;0.90;;
15086;SDS011;7642;48.478;8.952;2022-08-14T11:54:39;1.05;;;1.00;;
15086;SDS011;7642;48.478;8.952;2022-08-14T11:57:13;0.90;;;0.75;;
15086;SDS011;7642;48.478;8.952;2022-08-14T11:59:40;1.75;;;0.80;;
15086;SDS011;7642;48.478;8.952;2022-08-14T12:02:10;1.30;;;1.20;;
15086;SDS011;7642;48.478;8.952;2022-08-14T12:04:49;1.20;;;1.10;;
15086;SDS011;7642;48.478;8.952;2022-08-14T12:07:16;1.35;;;1.20;;
15086;SDS011;7642;48.478;8.952;2022-08-14T12:09:43;1.88;;;1.17;;
15086;SDS011;7642;48.478;8.952;2022-08-14T12:12:17;2.33;;;1.42;;
15086;SDS011;7642;48.478;8.952;2022-08-14T12:14:52;1.67;;;1.30;;
15086;SDS011;7642;48.478;8.952;2022-08-14T12:17:24;1.38;;;1.27;;
15086;SDS011;7642;48.478;8.952;2022-08-14T12:22:33;3.42;;;1.13;;
15086;SDS011;7642;48.478;8.952;2022-08-14T12:25:01;1.20;;;1.10;;
15086;SDS011;7642;48.478;8.952;2022-08-14T12:27:36;1.17;;;1.00;;
15086;SDS011;7642;48.478;8.952;2022-08-14T12:30:29;1.95;;;1.75;;
15086;SDS011;7642;48.478;8.952;2022-08-14T12:32:58;1.50;;;1.27;;
15086;SDS011;7642;48.478;8.952;2022-08-14T12:35:40;3.13;;;1.10;;
15086;SDS011;7642;48.478;8.952;2022-08-14T12:38:11;1.10;;;1.00;;
15086;SDS011;7642;48.478;8.952;2022-08-14T12:40:45;1.52;;;1.27;;
15086;SDS011;7642;48.478;8.952;2022-08-14T12:43:11;3.85;;;1.35;;
15086;SDS011;7642;48.478;8.952;2022-08-14T12:45:36;1.77;;;1.50;;
15086;SDS011;7642;48.478;8.952;2022-08-14T12:48:03;1.67;;;1.52;;
15086;SDS011;7642;48.478;8.952;2022-08-14T12:50:33;1.63;;;1.52;;
15086;SDS011;7642;48.478;8.952;2022-08-14T12:53:06;1.60;;;1.50;;
15086;SDS011;7642;48.478;8.952;2022-08-14T12:55:33;3.75;;;1.75;;
15086;SDS011;7642;48.478;8.952;2022-08-14T12:58:01;1.60;;;1.35;;
15086;SDS011;7642;48.478;8.952;2022-08-14T13:00:29;1.45;;;1.35;;
15086;SDS011;7642;48.478;8.952;2022-08-14T13:03:01;1.58;;;1.48;;
15086;SDS011;7642;48.478;8.952;2022-08-14T13:05:30;2.00;;;1.80;;
15086;SDS011;7642;48.478;8.952;2022-08-14T13:07:59;2.05;;;1.58;;
15086;SDS011;7642;48.478;8.952;2022-08-14T13:10:30;1.90;;;1.50;;
15086;SDS011;7642;48.478;8.952;2022-08-14T13:12:57;1.95;;;1.75;;
15086;SDS011;7642;48.478;8.952;2022-08-14T13:15:23;1.90;;;1.80;;
15086;SDS011;7642;48.478;8.952;2022-08-14T13:17:51;1.67;;;1.58;;
15086;SDS011;7642;48.478;8.952;2022-08-14T13:20:21;2.00;;;1.48;;
15086;SDS011;7642;48.478;8.952;2022-08-14T13:22:48;2.97;;;1.42;;
15086;SDS011;7642;48.478;8.952;2022-08-14T13:25:15;1.60;;;1.50;;
15086;SDS011;7642;48.478;8.952;2022-08-14T13:27:47;1.70;;;1.60;;
15086;SDS011;7642;48.478;8.952;2022-08-14T13:30:14;1.50;;;1.40;;
15086;SDS011;7642;48.478;8.952;2022-08-14T13:32:44;2.13;;;1.80;;
15086;SDS011;7642;48.478;8.952;2022-08-14T13:35:10;1.83;;;1.73;;
15086;SDS011;7642;48.478;8.952;2022-08-14T13:37:37;3.83;;;1.67;;
15086;SDS011;7642;48.478;8.952;2022-08-14T13:40:05;1.98;;;1.73;;
15086;SDS011;7642;48.478;8.952;2022-08-14T13:42:31;1.88;;;1.73;;
15086;SDS011;7642;48.478;8.952;2022-08-14T13:45:00;1.50;;;1.40;;
15086;SDS011;7642;48.478;8.952;2022-08-14T13:47:28;1.88;;;1.58;;
15086;SDS011;7642;48.478;8.952;2022-08-14T13:49:57;1.80;;;1.50;;
15086;SDS011;7642;48.478;8.952;2022-08-14T13:52:37;1.60;;;1.50;;
15086;SDS011;7642;48.478;8.952;2022-08-14T13:55:06;3.17;;;1.67;;
15086;SDS011;7642;48.478;8.952;2022-08-14T13:57:33;2.55;;;1.75;;
15086;SDS011;7642;48.478;8.952;2022-08-14T14:00:04;1.85;;;1.70;;
15086;SDS011;7642;48.478;8.952;2022-08-14T14:02:36;1.60;;;1.50;;
15086;SDS011;7642;48.478;8.952;2022-08-14T14:05:04;1.67;;;1.52;;
15086;SDS011;7642;48.478;8.952;2022-08-14T14:07:32;1.40;;;1.27;;
15086;SDS011;7642;48.478;8.952;2022-08-14T14:10:00;1.50;;;1.40;;
15086;SDS011;7642;48.478;8.952;2022-08-14T14:12:29;1.95;;;1.42;;
15086;SDS011;7642;48.478;8.952;2022-08-14T14:14:55;2.00;;;1.73;;
15086;SDS011;7642;48.478;8.952;2022-08-14T14:17:23;3.67;;;1.50;;
15086;SDS011;7642;48.478;8.952;2022-08-14T14:19:50;1.92;;;1.70;;
15086;SDS011;7642;48.478;8.952;2022-08-14T14:22:16;1.75;;;1.65;;
15086;SDS011;7642;48.478;8.952;2022-08-14T14:24:42;2.80;;;1.90;;
15086;SDS011;7642;48.478;8.952;2022-08-14T14:27:09;1.98;;;1.70;;
15086;SDS011;7642;48.478;8.952;2022-08-14T14:29:36;1.42;;;1.33;;
15086;SDS011;7642;48.478;8.952;2022-08-14T14:32:10;1.60;;;1.27;;
15086;SDS011;7642;48.478;8.952;2022-08-14T14:34:37;1.98;;;1.40;;
15086;SDS011;7642;48.478;8.952;2022-08-14T14:37:05;1.65;;;1.55;;
15086;SDS011;7642;48.478;8.952;2022-08-14T14:39:35;1.60;;;1.50;;
15086;SDS011;7642;48.478;8.952;2022-08-14T14:42:02;4.97;;;1.92;;
15086;SDS011;7642;48.478;8.952;2022-08-14T14:44:37;1.75;;;1.50;;
15086;SDS011;7642;48.478;8.952;2022-08-14T14:47:07;1.83;;;1.52;;
15086;SDS011;7642;48.478;8.952;2022-08-14T14:49:36;1.85;;;1.73;;
15086;SDS011;7642;48.478;8.952;2022-08-14T14:52:03;1.95;;;1.77;;
15086;SDS011;7642;48.478;8.952;2022-08-14T14:54:30;1.40;;;1.30;;
15086;SDS011;7642;48.478;8.952;2022-08-14T14:57:02;2.90;;;1.50;;
15086;SDS011;7642;48.478;8.952;2022-08-14T14:59:30;1.65;;;1.52;;
15086;SDS011;7642;48.478;8.952;2022-08-14T15:01:58;1.45;;;1.35;;
15086;SDS011;7642;48.478;8.952;2022-08-14T15:04:34;1.52;;;1.42;;
15086;SDS011;7642;48.478;8.952;2022-08-14T15:07:02;1.52;;;1.42;;
15086;SDS011;7642;48.478;8.952;2022-08-14T15:09:29;2.38;;;1.60;;
15086;SDS011;7642;48.478;8.952;2022-08-14T15:11:55;1.90;;;1.70;;
15086;SDS011;7642;48.478;8.952;2022-08-14T15:14:21;2.28;;;1.70;;
15086;SDS011;7642;48.478;8.952;2022-08-14T15:16:47;3.05;;;1.88;;
15086;SDS011;7642;48.478;8.952;2022-08-14T15:19:13;1.85;;;1.40;;
15086;SDS011;7642;48.478;8.952;2022-08-14T15:21:39;2.20;;;1.80;;
15086;SDS011;7642;48.478;8.952;2022-08-14T15:24:06;1.70;;;1.50;;
15086;SDS011;7642;48.478;8.952;2022-08-14T15:26:32;1.73;;;1.48;;
15086;SDS011;7642;48.478;8.952;2022-08-14T15:29:00;2.70;;;1.67;;
15086;SDS011;7642;48.478;8.952;2022-08-14T15:31:27;4.13;;;1.67;;
15086;SDS011;7642;48.478;8.952;2022-08-14T15:33:53;4.50;;;1.77;;
15086;SDS011;7642;48.478;8.952;2022-08-14T15:36:39;1.38;;;1.27;;